createdAt,value
2022-10-11T00:00:54.621Z,98246.50
2022-10-11T00:03:23.008Z,98247.34
2022-10-11T00:05:54.041Z,98248.09
2022-10-11T00:08:22.849Z,98254.72
2022-10-11T00:10:58.266Z,98253.34
2022-10-11T00:13:26.704Z,98258.78
2022-10-11T00:15:54.974Z,98256.31
2022-10-11T00:18:24.068Z,98263.72
2022-10-11T00:21:02.072Z,98260.25
2022-10-11T00:23:30.366Z,98257.06
2022-10-11T00:25:59.708Z,98257.88
2022-10-11T00:28:28.079Z,98256.81
2022-10-11T00:30:56.361Z,98264.47
2022-10-11T00:33:24.861Z,98260.31
2022-10-11T00:35:54.432Z,98265.34
2022-10-11T00:38:22.728Z,98265.66
2022-10-11T00:40:51.254Z,98267.56
2022-10-11T00:43:20.328Z,98271.19
2022-10-11T00:46:01.012Z,98278.00
2022-10-11T00:48:31.832Z,98274.63
2022-10-11T00:51:02.157Z,98277.06
2022-10-11T00:53:30.735Z,98278.31
2022-10-11T00:56:02.155Z,98278.44
2022-10-11T00:58:30.929Z,98283.94
2022-10-11T01:00:59.210Z,98284.25
2022-10-11T01:03:32.186Z,98283.75
2022-10-11T01:06:03.840Z,98289.09
2022-10-11T01:08:32.408Z,98287.66
2022-10-11T01:11:00.648Z,98296.63
2022-10-11T01:13:37.370Z,98287.41
2022-10-11T01:16:09.503Z,98290.91
2022-10-11T01:18:42.177Z,98295.19
2022-10-11T01:21:13.420Z,98296.25
2022-10-11T01:23:56.968Z,98295.03
2022-10-11T01:26:35.679Z,98287.47
2022-10-11T01:29:10.269Z,98288.97
2022-10-11T01:31:40.515Z,98290.63
2022-10-11T01:34:12.250Z,98287.31
2022-10-11T01:36:42.165Z,98290.16
2022-10-11T01:39:11.617Z,98292.81
2022-10-11T01:41:41.829Z,98295.59
2022-10-11T01:44:10.412Z,98289.56
2022-10-11T01:46:40.045Z,98290.06
2022-10-11T01:49:08.295Z,98298.47
2022-10-11T01:51:38.860Z,98297.91
2022-10-11T01:54:20.663Z,98298.09
2022-10-11T01:56:58.054Z,98296.66
2022-10-11T01:59:33.857Z,98290.38
2022-10-11T02:02:06.952Z,98290.66
2022-10-11T02:04:36.483Z,98289.81
2022-10-11T02:07:07.731Z,98296.28
2022-10-11T02:09:37.712Z,98292.66
2022-10-11T02:12:08.772Z,98292.09
2022-10-11T02:14:38.529Z,98287.63
2022-10-11T02:17:10.212Z,98287.72
2022-10-11T02:19:39.849Z,98294.94
2022-10-11T02:22:09.626Z,98288.97
2022-10-11T02:24:39.185Z,98295.25
2022-10-11T02:27:07.763Z,98295.88
2022-10-11T02:29:37.849Z,98295.25
2022-10-11T02:32:06.430Z,98300.66
2022-10-11T02:34:37.812Z,98299.72
2022-10-11T02:37:07.352Z,98295.25
2022-10-11T02:39:41.469Z,98306.56
2022-10-11T02:42:12.649Z,98297.69
2022-10-11T02:44:44.167Z,98299.41
2022-10-11T02:47:12.639Z,98300.66
2022-10-11T02:49:42.257Z,98304.97
2022-10-11T02:52:10.598Z,98306.66
2022-10-11T02:54:38.806Z,98309.69
2022-10-11T02:57:07.011Z,98301.44
2022-10-11T02:59:35.225Z,98312.19
2022-10-11T03:02:03.489Z,98326.16
2022-10-11T03:04:31.728Z,98324.06
2022-10-11T03:07:01.337Z,98321.59
2022-10-11T03:09:29.802Z,98324.91
2022-10-11T03:11:57.982Z,98331.50
2022-10-11T03:14:26.339Z,98326.97
2022-10-11T03:16:54.511Z,98337.50
2022-10-11T03:19:23.070Z,98338.47
2022-10-11T03:21:51.265Z,98332.84
2022-10-11T03:24:20.884Z,98337.59
2022-10-11T03:26:49.108Z,98333.88
2022-10-11T03:29:17.318Z,98342.06
2022-10-11T03:31:45.525Z,98339.41
2022-10-11T03:34:13.730Z,98348.53
2022-10-11T03:36:42.201Z,98349.28
2022-10-11T03:39:10.466Z,98356.97
2022-10-11T03:41:40.049Z,98355.66
2022-10-11T03:44:08.279Z,98357.47
2022-10-11T03:46:36.484Z,98365.28
2022-10-11T03:49:04.714Z,98365.28
2022-10-11T03:51:33.104Z,98364.19
2022-10-11T03:54:01.292Z,98361.53
2022-10-11T03:56:29.499Z,98372.72
2022-10-11T03:58:59.061Z,98370.31
2022-10-11T04:01:27.269Z,98370.31
2022-10-11T04:03:57.176Z,98370.41
2022-10-11T04:06:25.695Z,98374.22
2022-10-11T04:08:53.910Z,98370.69
2022-10-11T04:11:24.428Z,98374.38
2022-10-11T04:13:52.652Z,98372.53
2022-10-11T04:16:22.248Z,98380.41
2022-10-11T04:18:50.459Z,98379.31
2022-10-11T04:21:18.811Z,98379.69
2022-10-11T04:23:48.302Z,98381.56
2022-10-11T04:26:16.519Z,98377.25
2022-10-11T04:28:47.031Z,98384.16
2022-10-11T04:31:15.291Z,98385.44
2022-10-11T04:33:45.180Z,98388.41
2022-10-11T04:36:13.379Z,98387.69
2022-10-11T04:38:41.700Z,98385.78
2022-10-11T04:41:10.670Z,98389.47
2022-10-11T04:43:38.902Z,98390.53
2022-10-11T04:46:07.376Z,98398.34
2022-10-11T04:48:38.822Z,98402.38
2022-10-11T04:51:08.879Z,98402.66
2022-10-11T04:53:37.098Z,98397.50
2022-10-11T04:56:06.500Z,98401.81
2022-10-11T04:58:35.791Z,98399.56
2022-10-11T05:01:04.072Z,98400.69
2022-10-11T05:03:32.403Z,98402.56
2022-10-11T05:06:05.245Z,98396.22
2022-10-11T05:08:35.387Z,98397.94
2022-10-11T05:11:04.511Z,98396.56
2022-10-11T05:13:32.821Z,98401.97
2022-10-11T05:16:01.083Z,98401.13
2022-10-11T05:18:29.656Z,98403.34
2022-10-11T05:21:01.778Z,98409.19
2022-10-11T05:23:30.188Z,98414.59
2022-10-11T05:25:59.795Z,98420.78
2022-10-11T05:28:28.346Z,98418.03
2022-10-11T05:30:56.658Z,98415.22
2022-10-11T05:33:24.848Z,98418.81
2022-10-11T05:36:11.868Z,98417.88
2022-10-11T05:38:40.116Z,98415.22
2022-10-11T05:41:10.339Z,98428.25
2022-10-11T05:43:38.797Z,98429.47
2022-10-11T05:46:07.720Z,98429.28
2022-10-11T05:48:36.373Z,98423.00
2022-10-11T05:51:09.262Z,98433.06
2022-10-11T05:53:37.995Z,98431.00
2022-10-11T05:56:07.216Z,98429.19
2022-10-11T05:58:36.980Z,98436.06
2022-10-11T06:01:06.973Z,98435.22
2022-10-11T06:03:35.209Z,98433.25
2022-10-11T06:06:03.701Z,98442.59
2022-10-11T06:08:33.796Z,98441.91
2022-10-11T06:11:12.120Z,98442.75
2022-10-11T06:13:42.244Z,98446.88
2022-10-11T06:16:10.455Z,98452.41
2022-10-11T06:18:38.693Z,98452.19
2022-10-11T06:21:07.185Z,98457.38
2022-10-11T06:23:35.679Z,98452.47
2022-10-11T06:26:06.152Z,98463.53
2022-10-11T06:28:35.080Z,98466.56
2022-10-11T06:31:06.276Z,98454.00
2022-10-11T06:33:34.472Z,98471.44
2022-10-11T06:36:03.822Z,98470.34
2022-10-11T06:38:50.825Z,98475.13
2022-10-11T06:41:20.041Z,98469.72
2022-10-11T06:43:49.583Z,98478.22
2022-10-11T06:46:21.536Z,98479.75
2022-10-11T06:48:50.153Z,98479.09
2022-10-11T06:51:19.686Z,98484.38
2022-10-11T06:53:50.242Z,98497.34
2022-10-11T06:56:18.621Z,98491.59
2022-10-11T06:58:46.872Z,98493.78
2022-10-11T07:01:18.775Z,98501.34
2022-10-11T07:03:48.510Z,98501.91
2022-10-11T07:06:17.951Z,98504.13
2022-10-11T07:08:46.146Z,98506.53
2022-10-11T07:11:15.194Z,98514.06
2022-10-11T07:13:43.390Z,98516.56
2022-10-11T07:16:12.396Z,98515.09
2022-10-11T07:18:40.589Z,98518.06
2022-10-11T07:21:12.342Z,98513.03
2022-10-11T07:23:40.858Z,98517.97
2022-10-11T07:26:09.571Z,98521.63
2022-10-11T07:28:38.348Z,98520.09
2022-10-11T07:31:07.006Z,98519.69
2022-10-11T07:33:35.471Z,98523.59
2022-10-11T07:36:04.163Z,98524.91
2022-10-11T07:38:34.153Z,98529.59
2022-10-11T07:41:16.598Z,98518.22
2022-10-11T07:43:47.944Z,98522.09
2022-10-11T07:46:16.186Z,98519.41
2022-10-11T07:48:44.676Z,98521.75
2022-10-11T07:51:33.450Z,98528.41
2022-10-11T07:54:06.989Z,98525.91
2022-10-11T07:56:54.518Z,98526.81
2022-10-11T07:59:23.559Z,98519.13
2022-10-11T08:01:51.794Z,98530.59
2022-10-11T08:04:22.143Z,98532.78
2022-10-11T08:06:53.354Z,98525.72
2022-10-11T08:09:23.169Z,98521.38
2022-10-11T08:11:51.715Z,98521.38
2022-10-11T08:14:19.928Z,98526.09
2022-10-11T08:16:48.148Z,98530.59
2022-10-11T08:19:16.392Z,98533.38
2022-10-11T08:21:44.904Z,98528.66
2022-10-11T08:24:14.442Z,98533.59
2022-10-11T08:26:44.274Z,98531.88
2022-10-11T08:29:13.462Z,98530.66
2022-10-11T08:31:41.674Z,98526.91
2022-10-11T08:34:09.888Z,98531.63
2022-10-11T08:36:38.732Z,98528.47
2022-10-11T08:39:07.550Z,98529.22
2022-10-11T08:41:40.517Z,98534.78
2022-10-11T08:44:21.150Z,98532.78
2022-10-11T08:46:53.222Z,98530.97
2022-10-11T08:49:25.939Z,98533.53
2022-10-11T08:52:13.178Z,98527.19
2022-10-11T08:54:45.009Z,98528.47
2022-10-11T08:57:16.239Z,98531.00
2022-10-11T08:59:49.182Z,98519.06
2022-10-11T09:02:25.995Z,98520.00
2022-10-11T09:04:55.510Z,98520.53
2022-10-11T09:07:30.948Z,98521.19
2022-10-11T09:10:06.720Z,98521.41
2022-10-11T09:12:41.112Z,98511.06
2022-10-11T09:15:16.285Z,98521.19
2022-10-11T09:17:55.655Z,98510.97
2022-10-11T09:20:34.841Z,98513.28
2022-10-11T09:23:04.757Z,98518.81
2022-10-11T09:25:34.565Z,98509.78
2022-10-11T09:28:11.904Z,98510.16
2022-10-11T09:30:42.692Z,98506.78
2022-10-11T09:33:13.553Z,98508.47
2022-10-11T09:35:42.887Z,98513.09
2022-10-11T09:38:15.498Z,98515.19
2022-10-11T09:40:50.018Z,98506.03
2022-10-11T09:43:18.242Z,98513.09
2022-10-11T09:45:49.795Z,98507.50
2022-10-11T09:48:19.909Z,98515.19
2022-10-11T09:50:48.135Z,98505.91
2022-10-11T09:53:16.391Z,98514.22
2022-10-11T09:55:53.423Z,98507.72
2022-10-11T09:58:28.079Z,98521.53
2022-10-11T10:01:07.583Z,98519.06
2022-10-11T10:03:37.156Z,98515.91
2022-10-11T10:06:08.470Z,98521.53
2022-10-11T10:08:37.215Z,98517.38
2022-10-11T10:11:06.234Z,98527.28
2022-10-11T10:16:29.990Z,98519.25
2022-10-11T10:18:59.240Z,98516.28
2022-10-11T10:21:29.791Z,98509.34
2022-10-11T10:23:58.213Z,98512.16
2022-10-11T10:26:27.053Z,98514.38
2022-10-11T10:28:57.055Z,98515.72
2022-10-11T10:31:26.263Z,98510.84
2022-10-11T10:33:56.146Z,98506.91
2022-10-11T10:36:25.368Z,98510.84
2022-10-11T10:38:57.708Z,98507.28
2022-10-11T10:41:25.907Z,98512.03
2022-10-11T10:43:55.750Z,98512.03
2022-10-11T10:46:45.398Z,98508.00
2022-10-11T10:52:19.606Z,98515.19
2022-10-11T10:54:50.336Z,98505.56
2022-10-11T10:57:20.383Z,98506.50
2022-10-11T11:00:03.798Z,98508.59
2022-10-11T11:02:41.283Z,98504.00
2022-10-11T11:05:21.833Z,98503.81
2022-10-11T11:07:53.118Z,98499.94
2022-10-11T11:10:22.945Z,98497.56
2022-10-11T11:12:54.524Z,98491.69
2022-10-11T11:15:32.070Z,98491.31
2022-10-11T11:18:07.967Z,98497.00
2022-10-11T11:20:45.009Z,98493.03
2022-10-11T11:23:18.207Z,98498.75
2022-10-11T11:25:50.044Z,98503.84
2022-10-11T11:28:27.019Z,98495.56
2022-10-11T11:30:58.951Z,98497.50
2022-10-11T11:33:32.108Z,98495.34
2022-10-11T11:36:04.176Z,98487.84
2022-10-11T11:38:38.684Z,98485.16
2022-10-11T11:41:07.454Z,98482.66
2022-10-11T11:43:38.060Z,98475.28
2022-10-11T11:46:10.218Z,98474.03
2022-10-11T11:48:38.697Z,98471.09
2022-10-11T11:51:11.526Z,98466.75
2022-10-11T11:53:50.167Z,98459.59
2022-10-11T11:56:28.134Z,98463.78
2022-10-11T11:59:03.511Z,98454.75
2022-10-11T12:01:34.423Z,98464.22
2022-10-11T12:04:04.558Z,98463.19
2022-10-11T12:06:43.736Z,98461.72
2022-10-11T12:09:23.455Z,98463.03
2022-10-11T12:11:54.567Z,98463.94
2022-10-11T12:14:29.687Z,98456.91
2022-10-11T12:17:10.647Z,98460.06
2022-10-11T12:19:39.376Z,98461.69
2022-10-11T12:22:32.191Z,98461.09
2022-10-11T12:25:01.343Z,98454.53
2022-10-11T12:27:38.675Z,98445.25
2022-10-11T12:30:21.480Z,98452.50
2022-10-11T12:32:52.933Z,98442.03
2022-10-11T12:35:42.790Z,98440.59
2022-10-11T12:38:18.460Z,98439.84
2022-10-11T12:40:47.964Z,98441.19
2022-10-11T12:43:26.736Z,98439.16
2022-10-11T12:45:54.942Z,98433.88
2022-10-11T12:48:40.764Z,98429.88
2022-10-11T12:51:21.646Z,98428.25
2022-10-11T12:54:25.369Z,98425.63
2022-10-11T12:57:12.455Z,98423.28
2022-10-11T12:59:47.086Z,98421.41
2022-10-11T13:02:25.312Z,98421.50
2022-10-11T13:04:53.565Z,98418.97
2022-10-11T13:07:23.712Z,98417.03
2022-10-11T13:09:55.454Z,98414.59
2022-10-11T13:12:24.603Z,98419.34
2022-10-11T13:15:00.784Z,98408.81
2022-10-11T13:17:37.260Z,98413.47
2022-10-11T13:20:10.598Z,98401.88
2022-10-11T13:22:41.289Z,98405.84
2022-10-11T13:25:15.675Z,98408.13
2022-10-11T13:27:43.964Z,98407.47
2022-10-11T13:30:17.205Z,98410.91
2022-10-11T13:32:45.725Z,98397.91
2022-10-11T13:35:20.972Z,98401.59
2022-10-11T13:37:52.112Z,98397.13
2022-10-11T13:40:21.993Z,98400.59
2022-10-11T13:42:50.884Z,98400.06
2022-10-11T13:45:20.898Z,98397.19
2022-10-11T13:47:49.217Z,98397.69
2022-10-11T13:50:24.215Z,98397.94
2022-10-11T13:52:57.099Z,98400.31
2022-10-11T13:55:28.614Z,98401.00
2022-10-11T13:57:56.881Z,98396.59
2022-10-11T14:00:29.439Z,98395.63
2022-10-11T14:02:59.845Z,98395.00
2022-10-11T14:05:31.370Z,98394.31
2022-10-11T14:08:00.344Z,98390.31
2022-10-11T14:10:29.932Z,98393.94
2022-10-11T14:13:01.616Z,98393.38
2022-10-11T14:15:31.091Z,98395.91
2022-10-11T14:18:02.321Z,98392.06
2022-10-11T14:20:38.388Z,98393.63
2022-10-11T14:23:06.741Z,98386.00
2022-10-11T14:25:36.635Z,98389.59
2022-10-11T14:28:05.879Z,98387.53
2022-10-11T14:30:34.244Z,98384.38
2022-10-11T14:33:02.810Z,98382.22
2022-10-11T14:35:32.615Z,98378.13
2022-10-11T14:38:00.860Z,98375.88
2022-10-11T14:40:30.873Z,98372.19
2022-10-11T14:43:18.931Z,98372.53
2022-10-11T14:45:47.170Z,98365.72
2022-10-11T14:48:15.582Z,98375.91
2022-10-11T14:50:49.291Z,98374.03
2022-10-11T14:53:17.803Z,98371.59
2022-10-11T14:55:46.217Z,98372.91
2022-10-11T14:58:16.757Z,98372.41
2022-10-11T15:00:45.593Z,98365.66
2022-10-11T15:03:31.014Z,98373.44
2022-10-11T15:05:59.245Z,98376.81
2022-10-11T15:08:45.726Z,98369.50
2022-10-11T15:11:32.687Z,98373.91
2022-10-11T15:14:02.429Z,98360.69
2022-10-11T15:16:30.719Z,98356.34
2022-10-11T15:18:58.910Z,98361.28
2022-10-11T15:21:45.784Z,98359.91
2022-10-11T15:24:51.511Z,98358.75
2022-10-11T15:27:26.511Z,98359.00
2022-10-11T15:29:56.400Z,98362.09
2022-10-11T15:32:24.659Z,98366.22
2022-10-11T15:34:52.891Z,98364.38
2022-10-11T15:37:21.081Z,98366.81
2022-10-11T15:39:49.498Z,98367.25
2022-10-11T15:42:17.863Z,98369.50
2022-10-11T15:44:46.089Z,98365.78
2022-10-11T15:50:01.004Z,98363.34
2022-10-11T15:52:29.475Z,98359.34
2022-10-11T15:54:57.692Z,98374.91
2022-10-11T15:57:25.956Z,98365.56
2022-10-11T15:59:54.207Z,98364.31
2022-10-11T16:02:23.817Z,98368.41
2022-10-11T16:04:54.223Z,98373.66
2022-10-11T16:07:22.538Z,98360.59
2022-10-11T16:09:50.776Z,98369.66
2022-10-11T16:12:19.327Z,98368.16
2022-10-11T16:14:47.511Z,98363.66
2022-10-11T16:17:15.879Z,98357.94
2022-10-11T16:19:45.508Z,98362.81
2022-10-11T16:22:13.904Z,98364.06
2022-10-11T16:24:42.166Z,98364.63
2022-10-11T16:27:13.251Z,98361.94
2022-10-11T16:29:43.792Z,98363.06
2022-10-11T16:32:12.072Z,98364.91
2022-10-11T16:34:40.320Z,98363.72
2022-10-11T16:37:10.118Z,98363.31
2022-10-11T16:39:38.442Z,98372.50
2022-10-11T16:42:06.751Z,98373.97
2022-10-11T16:44:40.302Z,98367.88
2022-10-11T16:47:10.190Z,98376.53
2022-10-11T16:49:38.553Z,98376.41
2022-10-11T16:52:07.137Z,98380.28
2022-10-11T16:54:36.728Z,98380.03
2022-10-11T16:57:06.509Z,98377.75
2022-10-11T16:59:35.243Z,98386.84
2022-10-11T17:02:05.194Z,98384.66
2022-10-11T17:04:33.450Z,98378.03
2022-10-11T17:07:01.635Z,98381.69
2022-10-11T17:09:29.852Z,98381.84
2022-10-11T17:11:59.428Z,98383.06
2022-10-11T17:14:28.603Z,98386.94
2022-10-11T17:16:56.841Z,98388.88
2022-10-11T17:19:25.080Z,98385.44
2022-10-11T17:21:53.335Z,98385.16
2022-10-11T17:24:21.526Z,98383.78
2022-10-11T17:26:49.712Z,98381.56
2022-10-11T17:29:19.296Z,98380.59
2022-10-11T17:31:49.398Z,98384.94
2022-10-11T17:34:18.118Z,98379.03
2022-10-11T17:36:46.308Z,98385.31
2022-10-11T17:39:15.990Z,98388.84
2022-10-11T17:41:44.374Z,98379.84
2022-10-11T17:44:12.633Z,98377.69
2022-10-11T17:46:42.216Z,98385.03
2022-10-11T17:49:10.438Z,98381.41
2022-10-11T17:51:39.090Z,98386.22
2022-10-11T17:54:12.419Z,98387.34
2022-10-11T17:56:40.940Z,98389.63
2022-10-11T17:59:09.171Z,98390.16
2022-10-11T18:01:37.497Z,98387.25
2022-10-11T18:04:07.318Z,98383.00
2022-10-11T18:06:39.134Z,98385.97
2022-10-11T18:09:07.478Z,98391.78
2022-10-11T18:11:35.736Z,98388.25
2022-10-11T18:14:05.272Z,98378.69
2022-10-11T18:16:33.530Z,98389.44
2022-10-11T18:19:03.327Z,98390.81
2022-10-11T18:21:34.720Z,98388.44
2022-10-11T18:24:05.660Z,98387.44
2022-10-11T18:26:34.015Z,98390.22
2022-10-11T18:29:03.809Z,98389.81
2022-10-11T18:31:34.083Z,98385.72
2022-10-11T18:34:02.360Z,98383.38
2022-10-11T18:36:32.781Z,98385.50
2022-10-11T18:39:03.225Z,98382.22
2022-10-11T18:41:33.592Z,98384.22
2022-10-11T18:44:04.387Z,98382.63
2022-10-11T18:46:33.012Z,98387.34
2022-10-11T18:49:02.474Z,98389.56
2022-10-11T18:51:33.086Z,98385.47
2022-10-11T18:54:01.625Z,98387.41
2022-10-11T18:56:30.265Z,98386.56
2022-10-11T18:58:59.848Z,98383.47
2022-10-11T19:01:29.451Z,98383.91
2022-10-11T19:03:59.213Z,98392.81
2022-10-11T19:06:28.184Z,98382.66
2022-10-11T19:09:01.111Z,98378.06
2022-10-11T19:11:29.641Z,98385.00
2022-10-11T19:13:58.172Z,98384.13
2022-10-11T19:16:26.561Z,98387.13
2022-10-11T19:18:55.067Z,98387.44
2022-10-11T19:21:23.360Z,98382.66
2022-10-11T19:23:51.595Z,98378.44
2022-10-11T19:26:22.176Z,98380.16
2022-10-11T19:28:50.414Z,98380.16
2022-10-11T19:31:32.662Z,98383.91
2022-10-11T19:34:00.969Z,98384.66
2022-10-11T19:36:33.937Z,98379.16
2022-10-11T19:39:04.881Z,98386.88
2022-10-11T19:41:35.198Z,98393.34
2022-10-11T19:44:03.407Z,98392.22
2022-10-11T19:46:50.539Z,98389.03
2022-10-11T19:49:38.454Z,98382.81
2022-10-11T19:52:06.740Z,98375.88
2022-10-11T19:54:34.935Z,98379.91
2022-10-11T19:57:04.602Z,98376.03
2022-10-11T19:59:32.775Z,98376.63
2022-10-11T20:02:00.986Z,98371.47
2022-10-11T20:07:17.974Z,98378.94
2022-10-11T20:09:46.239Z,98379.28
2022-10-11T20:12:16.018Z,98386.22
2022-10-11T20:14:44.468Z,98384.22
2022-10-11T20:17:12.730Z,98389.75
2022-10-11T20:19:40.937Z,98386.13
2022-10-11T20:22:09.421Z,98391.56
2022-10-11T20:24:37.609Z,98381.28
2022-10-11T20:27:06.411Z,98387.69
2022-10-11T20:29:36.127Z,98392.19
2022-10-11T20:34:50.166Z,98387.19
2022-10-11T20:37:18.382Z,98388.69
2022-10-11T20:39:46.557Z,98384.22
2022-10-11T20:42:15.044Z,98387.66
2022-10-11T20:44:44.916Z,98378.22
2022-10-11T20:47:13.121Z,98380.88
2022-10-11T20:49:41.338Z,98383.78
2022-10-11T20:52:09.622Z,98376.50
2022-10-11T20:54:38.160Z,98379.56
2022-10-11T20:57:06.397Z,98382.16
2022-10-11T20:59:34.666Z,98377.84
2022-10-11T21:02:04.280Z,98381.22
2022-10-11T21:04:32.535Z,98384.97
2022-10-11T21:07:01.048Z,98381.88
2022-10-11T21:09:29.352Z,98386.78
2022-10-11T21:11:57.547Z,98383.44
2022-10-11T21:14:25.876Z,98377.13
2022-10-11T21:16:54.411Z,98373.59
2022-10-11T21:19:42.598Z,98378.84
2022-10-11T21:22:10.801Z,98369.72
2022-10-11T21:24:39.293Z,98374.28
2022-10-11T21:27:07.496Z,98371.72
2022-10-11T21:29:35.716Z,98368.94
2022-10-11T21:32:04.414Z,98372.38
2022-10-11T21:34:33.992Z,98364.38
2022-10-11T21:37:02.203Z,98358.84
2022-10-11T21:39:30.683Z,98361.53
2022-10-11T21:41:58.954Z,98363.97
2022-10-11T21:44:27.157Z,98359.91
2022-10-11T21:47:06.594Z,98363.25
2022-10-11T21:49:37.508Z,98361.91
2022-10-11T21:52:05.978Z,98361.41
2022-10-11T21:54:34.196Z,98362.66
2022-10-11T21:57:02.839Z,98360.66
2022-10-11T21:59:31.160Z,98362.47
2022-10-11T22:02:17.602Z,98356.19
2022-10-11T22:04:47.173Z,98360.56
2022-10-11T22:07:15.370Z,98353.50
2022-10-11T22:09:43.560Z,98353.50
2022-10-11T22:12:11.740Z,98354.84
2022-10-11T22:14:39.947Z,98357.13
2022-10-11T22:17:08.717Z,98355.09
2022-10-11T22:19:36.891Z,98354.38
2022-10-11T22:22:06.461Z,98353.97
2022-10-11T22:24:34.695Z,98357.31
2022-10-11T22:27:03.165Z,98353.03
2022-10-11T22:29:34.148Z,98362.25
2022-10-11T22:32:02.695Z,98360.56
2022-10-11T22:34:32.298Z,98359.22
2022-10-11T22:37:00.542Z,98361.34
2022-10-11T22:39:30.774Z,98363.16
2022-10-11T22:41:59.308Z,98362.41
2022-10-11T22:44:27.578Z,98360.56
2022-10-11T22:46:56.182Z,98358.94
2022-10-11T22:49:24.385Z,98353.63
2022-10-11T22:51:52.566Z,98360.03
2022-10-11T22:54:20.770Z,98357.34
2022-10-11T22:56:50.601Z,98358.88
2022-10-11T22:59:18.829Z,98364.56
2022-10-11T23:01:47.009Z,98360.69
2022-10-11T23:04:16.543Z,98359.16
2022-10-11T23:06:45.753Z,98353.56
2022-10-11T23:09:13.979Z,98351.06
2022-10-11T23:11:42.182Z,98349.81
2022-10-11T23:14:11.919Z,98350.38
2022-10-11T23:16:40.132Z,98353.84
2022-10-11T23:19:08.700Z,98348.41
2022-10-11T23:21:36.907Z,98349.34
2022-10-11T23:24:05.639Z,98351.16
2022-10-11T23:26:33.838Z,98348.69
2022-10-11T23:38:24.477Z,98353.16
2022-10-11T23:40:52.670Z,98350.47
2022-10-11T23:43:20.936Z,98358.38
2022-10-11T23:45:49.592Z,98361.81
2022-10-11T23:48:17.830Z,98353.56
2022-10-11T23:50:47.344Z,98358.13
2022-10-11T23:53:15.485Z,98360.09
2022-10-11T23:55:45.308Z,98359.94
2022-10-11T23:58:13.485Z,98359.84
